PDL weather

João Paulo II Airport
Ponta Delgada, Autonomous Region of Azores, Portugal

Public forecast

Using degrees Celsius for public forecast. Weather courtesy of forecast.io.

Current aviation weather report (METAR) for João Paulo II Airport

Retrieved 2019/10/15 09:30 UTC (25 minutes ago):

LPPD 150930Z 28019KT 9999 FEW022 SCT035 20/15 Q1021

Aviation forecast (TAF) for João Paulo II Airport

Retrieved 2019/10/15 06:18 UTC (4 hours ago):

TAF LPPD 150500Z 1506/1606 27017KT 9999 FEW025 BKN040 TEMPO 1506/1512 SCT020 BECMG 1516/1518 SCT008 BKN015 TEMPO 1518/1606 5000 RADZ BR SCT004 BKN008 PROB30 TEMPO 1518/1524 27020G30KT